EGNV

Durham Tees Valley Airport

Airport
ICAO code
EGNV
IATA Code
MME
Summary
ICAO Region
EUR
ICAO Territory
Location

Middleton St. George, Darlington, England

Serving
Middlesbrough
Elevation
120 ft
Coordinates
54° 30' 33" N , 1° 25' 45" W
KCC
Cfb
Metar
Observation
EGNV 141150Z 05008KT 310V080 9000 NSC 25/15 Q1009
Station
Tees-Side
Date/Time
2022-08-14 11:50:00
Wind direction
50°
Wind speed
08 kts
Lowest cloud amount
nil significant cloud
Temperature
25°C
Dew point
15°C
Humidity
53%
QNH
1009 hPa
Weather condition
n/a

Description

Durham Tees Valley Airport is a small international airport located near Darlington, North East England. About 16 km southwest of Middlesbrough and 39 km south of Durham. The airport serves County Durham, Teesside and parts of North Yorkshire. The airport is still widely recognised by its previous name, Teesside International Airport.

Climatology

Temperate Marine climate/Oceanic climate (Köppen climate classification Cfb). Moderately cool summer and comparatively warm winter with a temperature range of only 14°C. Prevailing south-westerly winds from the Atlantic Ocean.

Runways

Designator Length Width Surface Rops
5/23 2291 46 ASP Yes/Yes

Airport map

Aerial View

SKYbrary Partners:

Safety knowledge contributed by: